Time;durP1;ratioP1;P1;durP2;ratioP2;P2;SDS_P1;SDS_P2;PMS_P1;PMS_P2;Temp;Humidity;BMP_temperature;BMP_pressure;BME280_temperature;BME280_humidity;BME280_pressure;Samples;Min_cycle;Max_cycle;Signal;HPM_P1;HPM_P2
2022/12/21 00:01:55;;;;;;;60.92;24.20;;;2.00;99.90;;;;;;5008309;28;20042;-58
2022/12/21 00:04:20;;;;;;;66.15;25.48;;;2.00;99.90;;;;;;5007939;28;20466;-56
2022/12/21 00:06:46;;;;;;;73.82;26.48;;;2.00;99.90;;;;;;5010120;28;21314;-57
2022/12/21 00:09:13;;;;;;;67.45;26.83;;;2.00;99.90;;;;;;5008730;28;20038;-57
2022/12/21 00:11:39;;;;;;;63.85;25.80;;;1.90;99.90;;;;;;5008222;28;20108;-58
2022/12/21 00:14:06;;;;;;;69.30;25.70;;;1.90;99.90;;;;;;5008454;28;20402;-59
2022/12/21 00:16:34;;;;;;;55.38;25.60;;;1.90;99.90;;;;;;5007914;28;20033;-58
2022/12/21 00:19:00;;;;;;;71.93;27.58;;;1.90;99.90;;;;;;5006723;28;20017;-58
2022/12/21 00:21:32;;;;;;;68.45;27.70;;;1.90;99.90;;;;;;5008491;28;20184;-58
2022/12/21 00:23:59;;;;;;;68.63;26.85;;;1.80;99.90;;;;;;5007849;28;20386;-58
2022/12/21 00:26:27;;;;;;;72.03;27.00;;;1.90;99.90;;;;;;5008040;28;20486;-58
2022/12/21 00:28:54;;;;;;;64.72;25.75;;;1.90;99.90;;;;;;5007744;28;20052;-56
2022/12/21 00:31:23;;;;;;;65.80;26.65;;;1.90;99.90;;;;;;5007699;28;20029;-59
2022/12/21 00:33:50;;;;;;;65.70;28.77;;;1.90;99.90;;;;;;5007829;28;20608;-59
2022/12/21 00:36:17;;;;;;;70.95;26.70;;;1.80;99.90;;;;;;5008079;28;20041;-56
2022/12/21 00:38:43;;;;;;;73.43;30.50;;;1.80;99.90;;;;;;5007737;28;20714;-59
2022/12/21 00:41:12;;;;;;;73.20;28.70;;;1.80;99.90;;;;;;5007062;28;20037;-58
2022/12/21 00:43:39;;;;;;;72.10;28.73;;;1.80;99.90;;;;;;4992263;28;20014;-58
2022/12/21 00:46:06;;;;;;;70.25;27.33;;;1.80;99.90;;;;;;5005917;28;20061;-58
2022/12/21 00:48:34;;;;;;;72.70;28.17;;;1.90;99.90;;;;;;5008416;28;20034;-58
2022/12/21 00:51:05;;;;;;;71.35;27.17;;;1.80;99.90;;;;;;5005682;28;20030;-58
2022/12/21 00:53:31;;;;;;;65.72;28.10;;;1.90;99.90;;;;;;4994508;28;20022;-58
2022/12/21 00:55:58;;;;;;;70.45;28.88;;;1.90;99.90;;;;;;5007883;28;20025;-58
2022/12/21 00:58:26;;;;;;;79.50;28.85;;;1.80;99.90;;;;;;5007795;28;20022;-58
2022/12/21 01:00:53;;;;;;;65.13;27.92;;;1.80;99.90;;;;;;5007931;28;20034;-58
2022/12/21 01:03:19;;;;;;;80.20;29.30;;;1.90;99.90;;;;;;5007562;28;20026;-58
2022/12/21 01:05:46;;;;;;;79.47;29.58;;;1.90;99.90;;;;;;5006974;28;20037;-58
2022/12/21 01:08:12;;;;;;;79.20;30.08;;;1.90;99.90;;;;;;5007531;28;20101;-58
2022/12/21 01:10:38;;;;;;;75.93;32.15;;;1.90;99.90;;;;;;5007799;28;20029;-58
2022/12/21 01:13:03;;;;;;;72.72;28.33;;;1.90;99.90;;;;;;5010639;28;20038;-57
2022/12/21 01:15:29;;;;;;;82.32;29.05;;;1.90;99.90;;;;;;5011631;28;20363;-57
2022/12/21 01:17:54;;;;;;;89.75;31.05;;;1.90;99.90;;;;;;5011068;28;20062;-57
2022/12/21 01:20:21;;;;;;;70.47;28.48;;;1.90;99.90;;;;;;5011291;28;20029;-57
2022/12/21 01:22:46;;;;;;;78.22;30.20;;;1.90;99.90;;;;;;5011322;28;20033;-58
2022/12/21 01:25:12;;;;;;;77.18;31.10;;;1.90;99.90;;;;;;5009813;28;20022;-56
2022/12/21 01:27:38;;;;;;;69.72;29.00;;;2.00;99.90;;;;;;5012075;28;20018;-57
2022/12/21 01:30:04;;;;;;;76.57;26.70;;;2.00;99.90;;;;;;5010534;28;20146;-58
2022/12/21 01:32:29;;;;;;;78.20;32.70;;;2.00;99.90;;;;;;5011208;28;20026;-58
2022/12/21 01:34:56;;;;;;;81.47;31.27;;;2.00;99.90;;;;;;5011072;28;20041;-57
2022/12/21 01:37:22;;;;;;;72.57;28.88;;;2.00;99.90;;;;;;5010620;28;20057;-58
2022/12/21 01:39:48;;;;;;;71.95;28.33;;;2.00;99.90;;;;;;5011303;28;20742;-58
2022/12/21 01:42:14;;;;;;;72.70;29.42;;;2.00;99.90;;;;;;5010698;28;20038;-58
2022/12/21 01:45:04;;;;;;;73.38;30.38;;;2.10;99.90;;;;;;5010535;28;20027;-58
2022/12/21 01:47:40;;;;;;;64.38;28.50;;;2.10;99.90;;;;;;5010337;28;20418;-56
2022/12/21 01:50:34;;;;;;;83.43;29.35;;;2.10;99.90;;;;;;5011320;28;20026;-60
2022/12/21 01:53:05;;;;;;;73.20;29.35;;;2.10;99.90;;;;;;5011732;28;20034;-57
2022/12/21 01:55:31;;;;;;;82.03;31.35;;;2.00;99.90;;;;;;5010300;28;20737;-57
2022/12/21 01:57:59;;;;;;;76.10;28.25;;;2.00;99.90;;;;;;5010443;28;20028;-59
2022/12/21 02:00:24;;;;;;;84.13;32.38;;;2.00;99.90;;;;;;5003796;28;20049;-57
2022/12/21 02:02:56;;;;;;;77.47;29.38;;;2.00;99.90;;;;;;5008238;28;20022;-58
2022/12/21 02:05:48;;;;;;;85.07;30.10;;;2.00;99.90;;;;;;5010575;28;20064;-58
2022/12/21 02:08:14;;;;;;;81.97;31.73;;;2.00;99.90;;;;;;5007176;28;20081;-58
2022/12/21 02:10:40;;;;;;;82.78;31.15;;;2.00;99.90;;;;;;5010055;28;20030;-58
2022/12/21 02:13:10;;;;;;;80.07;29.88;;;1.90;99.90;;;;;;5010227;28;20024;-58
2022/12/21 02:15:58;;;;;;;88.35;34.03;;;1.90;99.90;;;;;;5008813;28;20025;-56
2022/12/21 02:18:42;;;;;;;87.45;33.70;;;1.90;99.90;;;;;;4972634;28;20124;-58
2022/12/21 02:21:29;;;;;;;87.25;31.30;;;1.90;99.90;;;;;;5009435;28;20037;-57
2022/12/21 02:24:25;;;;;;;90.53;33.50;;;1.90;99.90;;;;;;5009133;28;20479;-58
2022/12/21 02:26:53;;;;;;;90.55;34.10;;;1.90;99.90;;;;;;5008741;28;20033;-56
2022/12/21 02:29:31;;;;;;;93.65;35.00;;;1.90;99.90;;;;;;5010509;28;20057;-56
2022/12/21 02:32:14;;;;;;;92.68;35.67;;;2.00;99.90;;;;;;5008882;28;20045;-58
2022/12/21 02:35:01;;;;;;;102.82;36.72;;;1.90;99.90;;;;;;5008264;28;20585;-57
2022/12/21 02:38:04;;;;;;;88.88;31.95;;;1.90;99.90;;;;;;5008748;28;20038;-57
2022/12/21 02:40:58;;;;;;;102.35;34.65;;;1.90;99.90;;;;;;5009245;28;20040;-58
2022/12/21 02:46:48;;;;;;;87.07;33.10;;;1.90;99.90;;;;;;5010541;28;20052;-57
2022/12/21 02:49:29;;;;;;;96.97;33.35;;;1.90;99.90;;;;;;5007931;28;20060;-59
2022/12/21 02:52:22;;;;;;;96.10;33.90;;;1.90;99.90;;;;;;5009439;28;20046;-58
2022/12/21 02:54:47;;;;;;;108.18;39.83;;;1.90;99.90;;;;;;5007855;28;20044;-57
2022/12/21 02:57:13;;;;;;;105.45;35.72;;;1.90;99.90;;;;;;5009128;28;20386;-59
2022/12/21 02:59:47;;;;;;;99.88;35.65;;;1.90;99.90;;;;;;5009650;28;20160;-57
2022/12/21 03:02:31;;;;;;;111.93;37.08;;;1.90;99.90;;;;;;5008880;28;20113;-58
2022/12/21 03:05:16;;;;;;;106.20;36.50;;;1.90;99.90;;;;;;5008085;28;20049;-59
2022/12/21 03:07:54;;;;;;;105.95;38.95;;;1.90;99.90;;;;;;5009039;28;20383;-57
2022/12/21 03:10:29;;;;;;;107.65;36.75;;;2.00;99.90;;;;;;5008265;28;20156;-58
2022/12/21 03:13:13;;;;;;;105.15;34.85;;;2.00;99.90;;;;;;5010134;28;20022;-57
2022/12/21 03:15:55;;;;;;;106.35;35.53;;;2.00;99.90;;;;;;5007333;28;20040;-57
2022/12/21 03:18:47;;;;;;;116.13;36.92;;;2.00;99.90;;;;;;5008992;28;20038;-56
2022/12/21 03:21:47;;;;;;;102.00;34.55;;;2.00;99.90;;;;;;4980402;28;20040;-58
2022/12/21 03:24:21;;;;;;;110.90;38.17;;;2.00;99.90;;;;;;5002011;28;20020;-57
2022/12/21 03:26:56;;;;;;;114.28;37.25;;;2.00;99.90;;;;;;5008328;28;20112;-56
2022/12/21 03:29:28;;;;;;;107.70;36.78;;;2.00;99.90;;;;;;5007355;28;20053;-58
2022/12/21 03:31:59;;;;;;;103.63;36.08;;;2.00;99.90;;;;;;5007625;28;20029;-56
2022/12/21 03:34:36;;;;;;;109.65;37.08;;;2.00;99.90;;;;;;5007152;28;20374;-58
2022/12/21 03:37:07;;;;;;;111.10;35.58;;;2.00;99.90;;;;;;5008883;28;20014;-57
2022/12/21 03:39:41;;;;;;;114.07;37.13;;;2.00;99.90;;;;;;5008476;28;20335;-57
2022/12/21 03:42:24;;;;;;;102.68;37.30;;;2.00;99.90;;;;;;5007447;28;20451;-57
2022/12/21 03:44:57;;;;;;;95.70;34.80;;;2.00;99.90;;;;;;5009163;28;20122;-57
2022/12/21 03:48:12;;;;;;;111.45;36.38;;;2.10;99.90;;;;;;5008031;28;20038;-59
2022/12/21 03:50:43;;;;;;;110.05;37.22;;;2.10;99.90;;;;;;4983401;28;20037;-57
2022/12/21 03:53:39;;;;;;;123.75;39.13;;;2.10;99.90;;;;;;5007462;28;20117;-59
2022/12/21 03:56:08;;;;;;;105.60;38.15;;;2.10;99.90;;;;;;5005435;28;20088;-58
2022/12/21 03:58:35;;;;;;;117.00;38.10;;;2.10;99.90;;;;;;5008750;28;20034;-56
2022/12/21 04:01:06;;;;;;;117.47;38.95;;;2.10;99.90;;;;;;5007728;28;20044;-57
2022/12/21 04:03:38;;;;;;;125.05;39.22;;;2.10;99.90;;;;;;5008833;28;20129;-56
2022/12/21 04:06:17;;;;;;;123.60;39.17;;;2.10;99.90;;;;;;5008994;28;20037;-58
2022/12/21 04:08:43;;;;;;;118.03;35.58;;;2.10;99.90;;;;;;5008334;28;20564;-58
2022/12/21 04:12:36;;;;;;;126.40;40.67;;;2.10;99.90;;;;;;5008101;28;20033;-58
2022/12/21 04:13:57;;;;;;;141.88;43.95;;;2.10;99.90;;;;;;5007176;28;20030;-58
2022/12/21 04:16:23;;;;;;;122.13;37.85;;;2.10;99.90;;;;;;5010550;28;20040;-57
2022/12/21 04:21:32;;;;;;;130.15;40.15;;;2.10;99.90;;;;;;5008187;28;20165;-59
2022/12/21 04:29:26;;;;;;;123.80;38.80;;;2.10;99.90;;;;;;5008090;28;20041;-59
2022/12/21 04:31:52;;;;;;;128.55;42.53;;;2.20;99.90;;;;;;5007477;28;20034;-58
2022/12/21 04:34:17;;;;;;;127.80;38.85;;;2.20;99.90;;;;;;5007332;28;20113;-58
2022/12/21 04:39:27;;;;;;;144.80;45.47;;;2.20;99.90;;;;;;5007616;28;20121;-59
2022/12/21 04:41:53;;;;;;;124.85;40.55;;;2.20;99.90;;;;;;5007487;28;20153;-58
2022/12/21 04:44:20;;;;;;;134.13;41.65;;;2.20;99.90;;;;;;5007280;28;20026;-57
2022/12/21 04:46:46;;;;;;;117.00;38.85;;;2.20;99.90;;;;;;5011496;28;20050;-58
2022/12/21 04:49:12;;;;;;;113.18;39.70;;;2.20;99.90;;;;;;5013596;28;20025;-57
2022/12/21 04:51:37;;;;;;;122.50;41.38;;;2.20;99.90;;;;;;5014773;28;20096;-57
2022/12/21 04:54:04;;;;;;;120.22;38.75;;;2.20;99.90;;;;;;5014542;28;20067;-58
2022/12/21 04:56:30;;;;;;;129.50;40.03;;;2.20;99.90;;;;;;5013925;28;20042;-58
2022/12/21 04:58:55;;;;;;;125.78;40.45;;;2.20;99.90;;;;;;5014721;28;20038;-59
2022/12/21 05:01:22;;;;;;;125.30;39.42;;;2.20;99.90;;;;;;5013996;28;20800;-57
2022/12/21 05:03:49;;;;;;;128.75;38.58;;;2.20;99.90;;;;;;5012514;28;20040;-57
2022/12/21 05:06:17;;;;;;;141.60;40.45;;;2.20;99.90;;;;;;5013201;28;20113;-57
2022/12/21 05:08:43;;;;;;;132.38;40.05;;;2.20;99.90;;;;;;5012976;28;20050;-57
2022/12/21 05:11:12;;;;;;;185.55;45.28;;;2.20;99.90;;;;;;5013992;28;20506;-59
2022/12/21 05:13:39;;;;;;;129.30;39.30;;;2.20;99.90;;;;;;5013115;28;20022;-57
2022/12/21 05:16:07;;;;;;;127.32;41.75;;;2.30;99.90;;;;;;5014039;28;20025;-58
2022/12/21 05:18:33;;;;;;;144.52;41.83;;;2.30;99.90;;;;;;5015259;28;20014;-58
2022/12/21 05:20:59;;;;;;;163.55;41.20;;;2.30;99.90;;;;;;5013378;28;20406;-57
2022/12/21 05:23:24;;;;;;;147.15;42.42;;;2.30;99.90;;;;;;5014447;28;20037;-59
2022/12/21 05:25:50;;;;;;;158.93;44.10;;;2.30;99.90;;;;;;5013818;28;20129;-58
2022/12/21 05:28:16;;;;;;;147.27;43.15;;;2.30;99.90;;;;;;5013685;28;20065;-58
2022/12/21 05:30:41;;;;;;;127.97;41.25;;;2.30;99.90;;;;;;5014163;28;20022;-59
2022/12/21 05:33:07;;;;;;;130.00;40.65;;;2.30;99.90;;;;;;5013269;28;20033;-58
2022/12/21 05:35:32;;;;;;;138.15;43.58;;;2.30;99.90;;;;;;5014043;28;20449;-57
2022/12/21 05:37:58;;;;;;;148.57;42.97;;;2.30;99.90;;;;;;5013888;28;20502;-58
2022/12/21 05:40:24;;;;;;;151.68;43.08;;;2.30;99.90;;;;;;5012612;28;20038;-57
2022/12/21 05:42:49;;;;;;;161.15;41.72;;;2.30;99.90;;;;;;5014574;28;20034;-58
2022/12/21 05:45:15;;;;;;;153.73;42.70;;;2.30;99.90;;;;;;5013264;28;20144;-58
2022/12/21 05:47:40;;;;;;;140.88;43.10;;;2.30;99.90;;;;;;5011587;28;20022;-58
2022/12/21 05:50:07;;;;;;;144.23;42.28;;;2.30;99.90;;;;;;5013339;28;20049;-57
2022/12/21 05:52:32;;;;;;;135.30;38.83;;;2.40;99.90;;;;;;5013220;28;20455;-58
2022/12/21 05:54:58;;;;;;;172.38;42.85;;;2.40;99.90;;;;;;5014172;28;20018;-58
2022/12/21 05:57:24;;;;;;;139.68;43.97;;;2.40;99.90;;;;;;5012115;28;20446;-58
2022/12/21 05:59:49;;;;;;;143.07;41.35;;;2.40;99.90;;;;;;5010302;28;20034;-57
2022/12/21 06:02:15;;;;;;;142.90;44.60;;;2.40;99.90;;;;;;5008865;28;20104;-59
2022/12/21 06:04:41;;;;;;;123.95;41.03;;;2.40;99.90;;;;;;5009455;28;20053;-58
2022/12/21 06:07:07;;;;;;;141.38;41.80;;;2.40;99.90;;;;;;5010786;28;20017;-57
2022/12/21 06:09:32;;;;;;;137.77;43.20;;;2.40;99.90;;;;;;5011505;28;20490;-57
2022/12/21 06:11:58;;;;;;;140.57;42.88;;;2.40;99.90;;;;;;5010125;28;20058;-57
2022/12/21 06:14:23;;;;;;;141.23;41.67;;;2.40;99.90;;;;;;5010965;28;20030;-58
2022/12/21 06:16:49;;;;;;;139.50;43.28;;;2.40;99.90;;;;;;5009896;28;20795;-58
2022/12/21 06:19:15;;;;;;;153.70;43.13;;;2.40;99.90;;;;;;5010867;28;20032;-59
2022/12/21 06:21:40;;;;;;;144.55;43.38;;;2.40;99.90;;;;;;5011598;28;20405;-56
2022/12/21 06:24:06;;;;;;;157.05;42.67;;;2.50;99.90;;;;;;5010744;28;20080;-59
2022/12/21 06:26:32;;;;;;;142.23;41.83;;;2.50;99.90;;;;;;5012193;28;20034;-58
2022/12/21 06:28:57;;;;;;;133.73;40.95;;;2.40;99.90;;;;;;5011187;28;20030;-58
2022/12/21 06:31:23;;;;;;;157.32;44.80;;;2.50;99.90;;;;;;5012706;28;20025;-59
2022/12/21 06:33:49;;;;;;;126.05;39.40;;;2.50;99.90;;;;;;5011485;28;20081;-57
2022/12/21 06:36:16;;;;;;;160.18;44.53;;;2.50;99.90;;;;;;5010428;28;20104;-59
2022/12/21 06:38:42;;;;;;;139.80;42.60;;;2.50;99.90;;;;;;5010287;28;20026;-59
2022/12/21 06:41:13;;;;;;;162.10;44.92;;;2.50;99.90;;;;;;5009807;28;20040;-59
2022/12/21 06:43:40;;;;;;;138.45;42.60;;;2.50;99.90;;;;;;5011142;28;20125;-58
2022/12/21 06:46:15;;;;;;;156.75;43.33;;;2.50;99.90;;;;;;5011379;28;20025;-58
2022/12/21 06:48:41;;;;;;;146.88;42.67;;;2.50;99.90;;;;;;5010826;28;20721;-59
2022/12/21 06:51:15;;;;;;;116.55;39.47;;;2.50;99.90;;;;;;5008995;28;20030;-57
2022/12/21 06:53:43;;;;;;;144.80;44.70;;;2.50;99.90;;;;;;5008432;28;20390;-60
2022/12/21 06:56:14;;;;;;;152.13;43.90;;;2.50;99.90;;;;;;5010426;28;20065;-59
2022/12/21 06:58:40;;;;;;;130.38;40.22;;;2.50;99.90;;;;;;5009559;28;20032;-58
2022/12/21 07:01:10;;;;;;;149.57;43.60;;;2.50;99.90;;;;;;5009873;28;20029;-59
2022/12/21 07:03:36;;;;;;;115.95;39.45;;;2.50;99.90;;;;;;5005866;28;20479;-58
2022/12/21 07:06:03;;;;;;;130.40;40.67;;;2.50;99.90;;;;;;5010410;28;20029;-59
2022/12/21 07:08:29;;;;;;;137.32;39.78;;;2.50;99.90;;;;;;5010691;28;20470;-58
2022/12/21 07:10:59;;;;;;;134.50;43.55;;;2.50;99.90;;;;;;5009156;28;20447;-58
2022/12/21 07:13:26;;;;;;;123.68;37.85;;;2.50;99.90;;;;;;5008536;28;20037;-58
2022/12/21 07:15:52;;;;;;;136.07;42.30;;;2.50;99.90;;;;;;5008395;28;20080;-58
2022/12/21 07:18:18;;;;;;;140.25;41.63;;;2.50;99.90;;;;;;5008808;28;20500;-58
2022/12/21 07:20:44;;;;;;;130.20;41.60;;;2.50;99.90;;;;;;5009520;28;20038;-58
2022/12/21 07:23:10;;;;;;;141.57;41.05;;;2.50;99.90;;;;;;5009089;28;20022;-58
2022/12/21 07:25:35;;;;;;;146.20;40.78;;;2.50;99.90;;;;;;5009128;28;20117;-58
2022/12/21 07:28:01;;;;;;;126.68;40.65;;;2.50;99.90;;;;;;5009298;28;20022;-58
2022/12/21 07:30:27;;;;;;;143.80;40.88;;;2.50;99.90;;;;;;5009320;28;20107;-58
2022/12/21 07:32:53;;;;;;;129.50;41.75;;;2.50;99.90;;;;;;5009496;28;20038;-59
2022/12/21 07:35:21;;;;;;;123.15;39.72;;;2.50;99.90;;;;;;5008324;28;20155;-60
2022/12/21 07:37:47;;;;;;;116.75;37.83;;;2.50;99.90;;;;;;5008162;28;20120;-59
2022/12/21 07:40:15;;;;;;;121.18;35.72;;;2.50;99.90;;;;;;5004563;28;20105;-59
2022/12/21 07:42:42;;;;;;;115.18;37.55;;;2.50;99.90;;;;;;5006297;28;20920;-58
2022/12/21 07:45:09;;;;;;;129.75;40.05;;;2.50;99.90;;;;;;5007154;28;20049;-58
2022/12/21 07:47:35;;;;;;;115.68;40.58;;;2.50;99.90;;;;;;5008343;28;20029;-58
2022/12/21 07:50:02;;;;;;;127.32;43.42;;;2.50;99.90;;;;;;5008850;28;20570;-57
2022/12/21 07:52:27;;;;;;;142.98;41.58;;;2.50;99.90;;;;;;5009184;28;20502;-59
2022/12/21 07:54:53;;;;;;;131.43;39.78;;;2.50;99.90;;;;;;5008190;28;20048;-57
2022/12/21 07:57:18;;;;;;;120.97;39.80;;;2.50;99.90;;;;;;5008575;28;20517;-59
2022/12/21 07:59:45;;;;;;;131.80;39.95;;;2.60;99.90;;;;;;5007715;28;20038;-59
2022/12/21 08:02:10;;;;;;;123.07;40.45;;;2.50;99.90;;;;;;5007897;28;20034;-59
2022/12/21 08:04:36;;;;;;;131.15;38.65;;;2.60;99.90;;;;;;5007870;28;20080;-58
2022/12/21 08:07:02;;;;;;;120.88;38.88;;;2.60;99.90;;;;;;5007751;28;20398;-59
2022/12/21 08:09:27;;;;;;;149.80;40.95;;;2.60;99.90;;;;;;5009726;28;20397;-60
2022/12/21 08:11:53;;;;;;;150.18;39.13;;;2.60;99.90;;;;;;5007186;28;20030;-58
2022/12/21 08:14:18;;;;;;;137.52;38.25;;;2.60;99.90;;;;;;5007826;28;20022;-59
2022/12/21 08:16:44;;;;;;;129.40;38.85;;;2.60;99.90;;;;;;5006136;28;20021;-58
2022/12/21 08:19:09;;;;;;;126.80;39.20;;;2.60;99.90;;;;;;5006289;28;20069;-58
2022/12/21 08:21:35;;;;;;;120.20;38.72;;;2.60;99.90;;;;;;5005275;28;20057;-58
2022/12/21 08:24:01;;;;;;;127.10;39.13;;;2.60;99.90;;;;;;5005964;28;20034;-61
2022/12/21 08:26:26;;;;;;;131.75;40.13;;;2.60;99.90;;;;;;5006141;28;20417;-59
2022/12/21 08:28:52;;;;;;;135.02;38.35;;;2.60;99.90;;;;;;5007937;28;20038;-59
2022/12/21 08:31:19;;;;;;;116.95;34.70;;;2.60;99.90;;;;;;5007098;28;20445;-59
2022/12/21 08:33:45;;;;;;;131.35;37.22;;;2.60;99.90;;;;;;5008679;28;20390;-59
2022/12/21 08:36:13;;;;;;;117.25;35.72;;;2.60;99.90;;;;;;5006712;28;20032;-58
2022/12/21 08:38:39;;;;;;;121.85;37.85;;;2.60;99.90;;;;;;5008785;28;20037;-59
2022/12/21 08:41:05;;;;;;;108.55;35.42;;;2.60;99.90;;;;;;5007587;28;20038;-57
2022/12/21 08:43:34;;;;;;;114.85;35.50;;;2.60;99.90;;;;;;4991811;28;20554;-59
2022/12/21 08:46:05;;;;;;;113.43;37.63;;;2.60;99.90;;;;;;5006589;28;20025;-58
2022/12/21 08:48:31;;;;;;;125.68;38.72;;;2.60;99.90;;;;;;5007647;28;20026;-59
2022/12/21 08:50:57;;;;;;;105.47;35.55;;;2.70;99.90;;;;;;5005689;28;20029;-58
2022/12/21 08:53:24;;;;;;;120.13;35.53;;;2.70;99.90;;;;;;5004206;28;20034;-59
2022/12/21 08:55:49;;;;;;;142.77;36.65;;;2.70;99.90;;;;;;4988571;28;20034;-59
2022/12/21 08:58:15;;;;;;;120.50;36.83;;;2.70;99.90;;;;;;5005032;28;20030;-58
2022/12/21 09:00:42;;;;;;;114.70;37.83;;;2.70;99.90;;;;;;5003426;28;20084;-58
2022/12/21 09:03:09;;;;;;;126.40;35.78;;;2.70;99.90;;;;;;5007554;28;20026;-59
2022/12/21 09:05:35;;;;;;;106.43;34.08;;;2.80;99.90;;;;;;5007180;28;20510;-59
2022/12/21 09:08:01;;;;;;;102.78;34.75;;;2.80;99.90;;;;;;5008185;28;20029;-59
2022/12/21 09:10:28;;;;;;;123.40;35.47;;;2.80;99.90;;;;;;5009660;28;20030;-57
2022/12/21 09:12:55;;;;;;;137.77;38.10;;;2.80;99.90;;;;;;5008025;28;20045;-58
2022/12/21 09:15:23;;;;;;;102.18;34.92;;;2.80;99.90;;;;;;5008167;28;20509;-58
2022/12/21 09:17:49;;;;;;;115.55;36.90;;;2.90;99.90;;;;;;5006540;28;20042;-58
2022/12/21 09:20:14;;;;;;;107.82;36.65;;;2.90;99.90;;;;;;5007159;28;20026;-59
2022/12/21 09:22:40;;;;;;;115.00;35.22;;;2.90;99.90;;;;;;5005617;28;20053;-59
2022/12/21 09:25:07;;;;;;;91.65;33.72;;;2.90;99.90;;;;;;5006138;28;20066;-59
2022/12/21 09:27:32;;;;;;;104.68;32.75;;;2.90;99.90;;;;;;5007171;28;20101;-60
2022/12/21 09:29:58;;;;;;;124.10;34.65;;;2.90;99.90;;;;;;5006336;28;20120;-58
2022/12/21 09:32:24;;;;;;;99.63;33.30;;;2.90;99.90;;;;;;5008215;28;20406;-58
2022/12/21 09:34:50;;;;;;;93.97;34.92;;;3.00;99.90;;;;;;5010589;28;20037;-58
2022/12/21 09:37:16;;;;;;;119.47;33.00;;;3.00;99.90;;;;;;5010189;28;20038;-59
2022/12/21 09:39:43;;;;;;;91.63;31.00;;;3.00;99.90;;;;;;5011575;28;20494;-58
2022/12/21 09:42:32;;;;;;;115.43;31.13;;;3.00;99.90;;;;;;5011231;28;20034;-58
2022/12/21 09:45:07;;;;;;;118.65;34.35;;;3.00;99.90;;;;;;5011746;28;20029;-58
2022/12/21 09:47:59;;;;;;;83.60;30.13;;;3.00;99.90;;;;;;5010918;28;20026;-58
2022/12/21 09:50:41;;;;;;;112.82;33.45;;;3.10;99.90;;;;;;5010346;28;20481;-59
2022/12/21 09:53:12;;;;;;;;;;;3.10;99.90;;;;;;5010622;28;20084;-57
2022/12/21 09:55:50;;;;;;;115.07;31.90;;;3.10;99.90;;;;;;5016177;28;19913;-61
2022/12/21 09:58:39;;;;;;;103.85;32.60;;;3.10;99.90;;;;;;5009885;28;20033;-58
2022/12/21 10:01:15;;;;;;;126.32;34.13;;;3.10;99.90;;;;;;5010311;28;20110;-57
2022/12/21 10:03:56;;;;;;;122.25;33.00;;;3.10;99.90;;;;;;5009896;28;20033;-59
2022/12/21 10:06:30;;;;;;;103.78;34.40;;;3.10;99.90;;;;;;5010420;28;20734;-58
2022/12/21 10:09:07;;;;;;;105.13;32.97;;;3.20;99.90;;;;;;5011421;28;20037;-58
2022/12/21 10:11:54;;;;;;;98.10;31.45;;;3.10;99.90;;;;;;5010938;28;20038;-58
2022/12/21 10:14:29;;;;;;;108.50;34.95;;;3.20;99.90;;;;;;5011013;28;20041;-59
2022/12/21 10:17:18;;;;;;;109.95;32.53;;;3.20;99.90;;;;;;5008371;28;20053;-58
2022/12/21 10:19:52;;;;;;;88.78;29.85;;;3.20;99.90;;;;;;5008893;28;20045;-59
2022/12/21 10:22:22;;;;;;;90.75;31.50;;;3.20;99.90;;;;;;5009886;28;20092;-59
2022/12/21 10:24:53;;;;;;;78.93;29.50;;;3.20;99.90;;;;;;5012406;28;20485;-58
2022/12/21 10:27:39;;;;;;;96.70;31.77;;;3.20;99.90;;;;;;5011373;28;20037;-59
2022/12/21 10:30:11;;;;;;;116.65;32.80;;;3.20;99.90;;;;;;5010501;28;20426;-58
2022/12/21 10:32:38;;;;;;;99.82;32.25;;;3.20;99.90;;;;;;5009264;28;20026;-57
2022/12/21 10:35:18;;;;;;;91.78;30.60;;;3.20;99.90;;;;;;5009049;28;20084;-58
2022/12/21 10:37:48;;;;;;;100.18;31.08;;;3.20;99.90;;;;;;5009767;28;20030;-58
2022/12/21 10:40:14;;;;;;;105.40;30.75;;;3.30;99.90;;;;;;5010433;28;20026;-57
2022/12/21 10:42:46;;;;;;;104.20;31.88;;;3.30;99.90;;;;;;5011051;28;20350;-58
2022/12/21 10:45:14;;;;;;;94.35;32.78;;;3.30;99.90;;;;;;5009491;28;20555;-58
2022/12/21 10:47:44;;;;;;;110.15;32.50;;;3.30;99.90;;;;;;5009193;28;20018;-59
2022/12/21 10:50:17;;;;;;;116.50;33.25;;;3.40;99.90;;;;;;5009234;28;20509;-59
2022/12/21 10:52:51;;;;;;;108.20;35.22;;;3.40;99.90;;;;;;5009545;28;20029;-60
2022/12/21 10:55:20;;;;;;;99.90;32.17;;;3.40;99.90;;;;;;5009085;28;20033;-59
2022/12/21 10:57:46;;;;;;;102.15;33.15;;;3.40;99.90;;;;;;4991738;28;20072;-58
2022/12/21 11:00:31;;;;;;;111.50;33.42;;;3.50;99.90;;;;;;5008453;28;20113;-59
2022/12/21 11:03:03;;;;;;;88.90;31.02;;;3.50;99.90;;;;;;4997053;28;20406;-57
2022/12/21 11:05:35;;;;;;;102.03;30.70;;;3.50;99.90;;;;;;5008350;28;20383;-60
2022/12/21 11:08:14;;;;;;;108.40;33.00;;;3.60;99.90;;;;;;5009957;28;20731;-59
2022/12/21 11:10:51;;;;;;;99.28;31.60;;;3.60;99.90;;;;;;5009109;28;20614;-59
2022/12/21 11:13:18;;;;;;;97.10;35.33;;;3.60;99.90;;;;;;5008911;28;20044;-59
2022/12/21 11:16:05;;;;;;;96.45;33.45;;;3.60;99.90;;;;;;4996003;28;20026;-59
2022/12/21 11:18:34;;;;;;;88.70;30.50;;;3.70;99.90;;;;;;4988839;28;20050;-59
2022/12/21 11:21:02;;;;;;;111.43;34.08;;;3.70;99.90;;;;;;5008986;28;20061;-58
2022/12/21 11:23:29;;;;;;;87.85;31.35;;;3.70;99.90;;;;;;4995299;28;20060;-58
2022/12/21 11:25:55;;;;;;;92.15;31.10;;;3.70;99.90;;;;;;5009557;28;20125;-59
2022/12/21 11:28:22;;;;;;;85.22;30.45;;;3.70;99.90;;;;;;5009637;28;20041;-59
2022/12/21 11:31:04;;;;;;;99.78;30.33;;;3.70;99.90;;;;;;5009429;28;20022;-59
2022/12/21 11:33:30;;;;;;;91.88;31.33;;;3.60;99.90;;;;;;4966333;28;20038;-59
2022/12/21 11:36:16;;;;;;;81.03;29.25;;;3.70;99.90;;;;;;4990462;28;20045;-58
2022/12/21 11:38:42;;;;;;;116.82;31.23;;;3.70;99.90;;;;;;5007953;28;20037;-59
2022/12/21 11:41:27;;;;;;;102.95;32.65;;;3.60;99.90;;;;;;4982198;28;20021;-58
2022/12/21 11:43:53;;;;;;;86.95;30.48;;;3.70;99.90;;;;;;5008848;28;20026;-59
2022/12/21 11:46:48;;;;;;;86.53;29.63;;;3.70;99.90;;;;;;5010263;28;20025;-60
2022/12/21 11:49:28;;;;;;;87.20;30.00;;;3.70;99.90;;;;;;5005639;28;20141;-59
2022/12/21 11:52:06;;;;;;;96.70;30.60;;;3.70;99.90;;;;;;5009381;28;20063;-60
2022/12/21 11:54:55;;;;;;;92.13;30.27;;;3.80;99.90;;;;;;5007791;28;20037;-58
2022/12/21 11:57:43;;;;;;;86.53;29.20;;;3.80;99.90;;;;;;5008407;28;20121;-59
2022/12/21 12:00:14;;;;;;;99.22;30.67;;;3.80;99.90;;;;;;5007925;28;20026;-59
2022/12/21 12:02:45;;;;;;;98.85;32.97;;;3.90;99.90;;;;;;5008358;28;20038;-58
2022/12/21 12:05:40;;;;;;;81.13;29.00;;;3.90;99.90;;;;;;5009737;28;20036;-60
2022/12/21 12:08:30;;;;;;;73.82;29.23;;;3.90;99.90;;;;;;4988104;28;20022;-58
2022/12/21 12:11:07;;;;;;;66.35;29.10;;;3.90;99.90;;;;;;5008756;28;20242;-59
2022/12/21 12:13:44;;;;;;;73.10;29.65;;;3.90;99.90;;;;;;5009668;28;20379;-58
2022/12/21 12:16:17;;;;;;;70.20;27.92;;;3.90;99.90;;;;;;5008855;28;20072;-58
2022/12/21 12:19:05;;;;;;;79.00;28.48;;;3.90;99.90;;;;;;5007709;28;20010;-58
2022/12/21 12:21:38;;;;;;;71.03;28.30;;;3.90;99.90;;;;;;5008202;28;20410;-60
2022/12/21 12:24:06;;;;;;;64.72;26.88;;;3.90;99.90;;;;;;5009114;28;20038;-58
2022/12/21 12:26:48;;;;;;;96.75;28.65;;;3.90;99.90;;;;;;5008147;28;20026;-59
2022/12/21 12:29:21;;;;;;;69.47;27.10;;;3.90;99.90;;;;;;5006851;28;20053;-58
2022/12/21 12:32:08;;;;;;;94.05;30.33;;;3.90;99.90;;;;;;5006929;28;20046;-60
2022/12/21 12:35:28;;;;;;;81.35;28.35;;;3.90;99.90;;;;;;5007535;28;20104;-59
2022/12/21 12:38:02;;;;;;;73.65;27.05;;;4.00;99.90;;;;;;4953909;28;20046;-60
2022/12/21 12:40:55;;;;;;;94.53;30.35;;;4.10;99.90;;;;;;4997916;28;20022;-59
2022/12/21 12:43:35;;;;;;;83.18;29.58;;;4.10;99.90;;;;;;5016675;28;20113;-59
2022/12/21 12:46:01;;;;;;;88.20;27.67;;;4.10;99.90;;;;;;5008814;28;20514;-59
2022/12/21 12:48:47;;;;;;;72.15;29.42;;;4.10;99.90;;;;;;5007854;28;20036;-59
2022/12/21 12:51:18;;;;;;;64.78;27.25;;;4.10;99.90;;;;;;4970033;28;20088;-59
2022/12/21 12:53:44;;;;;;;65.13;27.50;;;4.10;99.90;;;;;;5006824;28;20026;-59
2022/12/21 12:56:20;;;;;;;84.35;29.63;;;4.10;99.90;;;;;;5008540;28;20025;-59
2022/12/21 12:58:56;;;;;;;60.78;24.73;;;4.10;99.90;;;;;;5007351;28;20026;-59
2022/12/21 13:01:45;;;;;;;82.85;27.60;;;4.20;99.90;;;;;;5007336;28;20129;-58
2022/12/21 13:04:46;;;;;;;84.80;25.52;;;4.20;99.90;;;;;;4983334;28;20140;-58
2022/12/21 13:07:37;;;;;;;56.55;24.67;;;4.20;99.90;;;;;;4972381;28;20029;-59